createdAt,value
2022-11-29T00:04:05.548Z,6.36
2022-11-29T00:09:12.386Z,6.37
2022-11-29T00:14:17.375Z,6.38
2022-11-29T00:19:20.262Z,6.36
2022-11-29T00:24:24.617Z,6.38
2022-11-29T00:29:28.688Z,6.36
2022-11-29T00:34:31.465Z,6.39
2022-11-29T00:39:35.596Z,6.38
2022-11-29T00:44:38.397Z,6.39
2022-11-29T00:49:41.933Z,6.37
2022-11-29T00:54:46.259Z,6.35
2022-11-29T00:59:49.317Z,6.34
2022-11-29T01:04:52.677Z,6.35
2022-11-29T01:10:22.357Z,6.35
2022-11-29T01:15:25.220Z,6.33
2022-11-29T01:20:28.310Z,6.35
2022-11-29T01:25:32.644Z,6.35
2022-11-29T01:30:35.387Z,6.33
2022-11-29T01:35:38.127Z,6.33
2022-11-29T01:40:42.317Z,6.34
2022-11-29T01:45:46.088Z,6.35
2022-11-29T01:50:48.917Z,6.34
2022-11-29T01:55:55.139Z,6.35
2022-11-29T02:00:58.675Z,6.36
2022-11-29T02:06:02.555Z,6.35
2022-11-29T02:11:38.122Z,6.37
2022-11-29T02:16:56.551Z,6.38
2022-11-29T02:22:03.961Z,6.37
2022-11-29T02:27:13.522Z,6.36
2022-11-29T02:33:00.400Z,6.35
2022-11-29T02:38:22.864Z,6.31
2022-11-29T02:43:47.460Z,6.27
2022-11-29T02:49:04.131Z,6.22
2022-11-29T02:54:16.652Z,6.20
2022-11-29T02:59:35.219Z,6.23
2022-11-29T03:04:46.371Z,6.24
2022-11-29T03:09:57.800Z,6.24
2022-11-29T03:15:11.964Z,6.28
2022-11-29T03:20:28.194Z,6.30
2022-11-29T03:25:37.865Z,6.30
2022-11-29T03:30:47.278Z,6.33
2022-11-29T03:35:58.043Z,6.28
2022-11-29T03:41:11.245Z,6.22
2022-11-29T03:46:20.228Z,6.23
2022-11-29T03:51:34.530Z,6.22
2022-11-29T03:56:39.572Z,6.23
2022-11-29T04:02:17.194Z,6.24
2022-11-29T04:07:44.035Z,6.28
2022-11-29T04:13:22.074Z,6.28
2022-11-29T04:18:43.618Z,6.28
2022-11-29T04:24:38.149Z,6.31
2022-11-29T04:29:56.308Z,6.33
2022-11-29T04:35:15.765Z,6.34
2022-11-29T04:40:32.801Z,6.34
2022-11-29T04:45:54.541Z,6.36
2022-11-29T04:51:12.095Z,6.34
2022-11-29T04:56:22.442Z,6.36
2022-11-29T05:01:33.561Z,6.37
2022-11-29T05:06:41.660Z,6.39
2022-11-29T05:11:58.773Z,6.44
2022-11-29T05:17:09.591Z,6.47
2022-11-29T05:22:23.946Z,6.45
2022-11-29T05:27:43.030Z,6.46
2022-11-29T05:32:58.814Z,6.49
2022-11-29T05:38:13.781Z,6.50
2022-11-29T05:43:31.125Z,6.54
2022-11-29T05:48:45.347Z,6.56
2022-11-29T05:53:56.173Z,6.57
2022-11-29T05:59:02.222Z,6.60
2022-11-29T06:04:15.307Z,6.64
2022-11-29T06:09:27.645Z,6.65
2022-11-29T06:14:53.461Z,6.69
2022-11-29T06:20:31.969Z,6.72
2022-11-29T06:25:48.590Z,6.75
2022-11-29T06:31:00.987Z,6.78
2022-11-29T06:36:15.739Z,6.82
2022-11-29T06:41:23.336Z,6.83
2022-11-29T06:46:37.151Z,6.84
2022-11-29T06:51:52.655Z,6.86
2022-11-29T06:57:07.988Z,6.88
2022-11-29T07:02:29.309Z,6.91
2022-11-29T07:07:35.133Z,6.92
2022-11-29T07:12:40.138Z,6.93
2022-11-29T07:17:59.356Z,6.96
2022-11-29T07:23:12.221Z,6.98
2022-11-29T07:28:31.171Z,6.99
2022-11-29T07:33:45.283Z,7.02
2022-11-29T07:39:01.273Z,7.04
2022-11-29T07:44:12.576Z,7.07
2022-11-29T07:49:15.582Z,7.09
2022-11-29T07:54:20.977Z,7.10
2022-11-29T07:59:25.949Z,7.14
2022-11-29T08:04:28.738Z,7.19
2022-11-29T08:09:31.986Z,7.27
2022-11-29T08:14:36.561Z,7.28
2022-11-29T08:19:39.260Z,7.29
2022-11-29T08:24:43.258Z,7.32
2022-11-29T08:29:47.749Z,7.31
2022-11-29T08:34:50.725Z,7.36
2022-11-29T08:39:53.492Z,7.38
2022-11-29T08:44:57.890Z,7.43
2022-11-29T08:50:03.761Z,7.46
2022-11-29T08:55:07.422Z,7.52
2022-11-29T09:00:13.985Z,7.52
2022-11-29T09:05:16.858Z,7.53
2022-11-29T09:10:20.924Z,7.55
2022-11-29T09:15:25.107Z,7.59
2022-11-29T09:20:27.914Z,7.62
2022-11-29T09:25:30.866Z,7.69
2022-11-29T09:30:38.081Z,7.69
2022-11-29T09:35:41.779Z,7.72
2022-11-29T09:40:53.238Z,7.73
2022-11-29T09:46:03.231Z,7.70
2022-11-29T09:51:18.763Z,7.76
2022-11-29T09:56:29.090Z,7.77
2022-11-29T10:01:38.109Z,7.80
2022-11-29T10:06:51.114Z,7.82
2022-11-29T10:12:06.601Z,7.85
2022-11-29T10:17:23.474Z,7.89
2022-11-29T10:22:40.837Z,7.86
2022-11-29T10:27:43.822Z,7.91
2022-11-29T10:32:52.614Z,7.96
2022-11-29T10:38:29.121Z,8.01
2022-11-29T10:43:22.877Z,8.07
2022-11-29T10:48:31.834Z,8.16
2022-11-29T10:53:38.354Z,8.19
2022-11-29T10:58:58.608Z,8.13
2022-11-29T11:04:05.090Z,8.13
2022-11-29T11:09:15.967Z,8.20
2022-11-29T11:14:22.080Z,8.18
2022-11-29T11:19:31.917Z,8.17
2022-11-29T11:24:41.412Z,8.21
2022-11-29T11:29:46.922Z,8.24
2022-11-29T11:34:55.312Z,8.28
2022-11-29T11:40:00.570Z,8.29
2022-11-29T11:45:06.602Z,8.33
2022-11-29T11:50:17.642Z,8.34
2022-11-29T11:55:33.200Z,8.34
2022-11-29T12:06:28.361Z,8.75
2022-11-29T12:11:41.071Z,8.76
2022-11-29T12:16:46.287Z,8.73
2022-11-29T12:21:57.528Z,8.77
2022-11-29T12:27:05.055Z,8.85
2022-11-29T12:32:24.684Z,8.99
2022-11-29T12:37:36.224Z,9.21
2022-11-29T12:42:53.873Z,9.34
2022-11-29T12:48:05.842Z,9.43
2022-11-29T12:53:27.115Z,9.54
2022-11-29T12:58:45.638Z,9.51
2022-11-29T13:03:59.178Z,9.51
2022-11-29T13:09:26.742Z,9.64
2022-11-29T13:14:44.027Z,9.58
2022-11-29T13:19:52.972Z,9.62
2022-11-29T13:25:02.364Z,9.54
2022-11-29T13:30:06.758Z,9.56
2022-11-29T13:35:21.404Z,9.53
2022-11-29T13:40:37.968Z,9.39
2022-11-29T13:45:45.477Z,9.40
2022-11-29T13:50:48.335Z,9.29
2022-11-29T13:56:00.630Z,9.12
2022-11-29T14:01:08.028Z,9.08
2022-11-29T14:06:22.161Z,8.95
2022-11-29T14:11:32.870Z,8.92
2022-11-29T14:16:40.181Z,8.84
2022-11-29T14:22:31.546Z,8.79
2022-11-29T14:27:56.225Z,8.67
2022-11-29T14:33:04.444Z,8.56
2022-11-29T14:38:15.230Z,8.40
2022-11-29T14:43:25.719Z,8.32
2022-11-29T14:48:34.015Z,8.26
2022-11-29T14:53:38.762Z,8.24
2022-11-29T14:58:42.866Z,8.16
2022-11-29T15:03:50.478Z,8.03
2022-11-29T15:09:01.704Z,7.91
2022-11-29T15:14:09.261Z,7.77
2022-11-29T15:19:31.609Z,7.68
2022-11-29T15:24:51.106Z,7.55
2022-11-29T15:29:55.571Z,7.44
2022-11-29T15:34:59.474Z,7.35
2022-11-29T15:40:04.708Z,7.26
2022-11-29T15:45:30.765Z,7.13
2022-11-29T15:50:35.402Z,7.02
2022-11-29T15:55:38.660Z,6.93
2022-11-29T16:00:44.860Z,6.81
2022-11-29T16:05:51.978Z,6.73
2022-11-29T16:10:55.094Z,6.66
2022-11-29T16:16:07.819Z,6.58
2022-11-29T16:21:24.336Z,6.52
2022-11-29T16:26:30.766Z,6.46
2022-11-29T16:31:36.610Z,6.42
2022-11-29T16:36:39.510Z,6.38
2022-11-29T16:41:42.721Z,6.33
2022-11-29T16:46:47.289Z,6.27
2022-11-29T16:51:55.976Z,6.22
2022-11-29T16:56:58.967Z,6.22
2022-11-29T17:02:03.413Z,6.17
2022-11-29T17:07:08.612Z,6.14
2022-11-29T17:12:14.496Z,6.12
2022-11-29T17:17:20.762Z,6.10
2022-11-29T17:22:23.568Z,6.05
2022-11-29T17:27:26.372Z,6.02
2022-11-29T17:32:30.630Z,6.03
2022-11-29T17:37:33.385Z,6.04
2022-11-29T17:42:36.325Z,6.06
2022-11-29T17:47:40.478Z,6.07
2022-11-29T17:52:43.217Z,6.09
2022-11-29T17:57:46.067Z,6.14
2022-11-29T18:02:50.232Z,6.19
2022-11-29T18:07:59.263Z,6.23
2022-11-29T18:13:02.273Z,6.29
2022-11-29T18:18:06.713Z,6.32
2022-11-29T18:23:09.516Z,6.36
2022-11-29T18:28:13.722Z,6.36
2022-11-29T18:33:18.331Z,6.39
2022-11-29T18:38:21.378Z,6.44
2022-11-29T18:43:24.221Z,6.45
2022-11-29T18:48:31.097Z,6.47
2022-11-29T18:53:36.111Z,6.48
2022-11-29T18:58:39.320Z,6.49
2022-11-29T19:03:45.761Z,6.47
2022-11-29T19:08:49.249Z,6.47
2022-11-29T19:13:56.153Z,6.46
2022-11-29T19:19:01.368Z,6.43
2022-11-29T19:24:07.576Z,6.39
2022-11-29T19:29:10.389Z,6.34
2022-11-29T19:34:14.904Z,6.34
2022-11-29T19:39:18.448Z,6.31
2022-11-29T19:44:23.000Z,6.31
2022-11-29T19:49:30.849Z,6.28
2022-11-29T19:54:33.645Z,6.27
2022-11-29T19:59:36.606Z,6.28
2022-11-29T20:04:40.685Z,6.26
2022-11-29T20:09:43.947Z,6.29
2022-11-29T20:14:46.855Z,6.32
2022-11-29T20:19:51.061Z,6.32
2022-11-29T20:24:54.623Z,6.32
2022-11-29T20:29:57.514Z,6.32
2022-11-29T20:35:02.677Z,6.34
2022-11-29T20:40:10.760Z,6.36
2022-11-29T20:45:15.543Z,6.35
2022-11-29T20:50:23.720Z,6.37
2022-11-29T20:55:27.103Z,6.39
2022-11-29T21:00:31.297Z,6.41
2022-11-29T21:05:38.376Z,6.43
2022-11-29T21:10:43.499Z,6.41
2022-11-29T21:15:46.905Z,6.42
2022-11-29T21:21:01.512Z,6.40
2022-11-29T21:26:11.364Z,6.41
2022-11-29T21:31:17.673Z,6.40
2022-11-29T21:36:22.536Z,6.42
2022-11-29T21:41:25.334Z,6.41
2022-11-29T21:46:28.102Z,6.41
2022-11-29T21:51:32.353Z,6.39
2022-11-29T21:56:35.206Z,6.41
2022-11-29T22:01:38.189Z,6.40
2022-11-29T22:06:42.518Z,6.39
2022-11-29T22:11:45.640Z,6.39
2022-11-29T22:16:50.204Z,6.40
2022-11-29T22:21:57.136Z,6.40
2022-11-29T22:27:00.228Z,6.40
2022-11-29T22:32:03.195Z,6.37
2022-11-29T22:37:07.340Z,6.39
2022-11-29T22:42:10.202Z,6.38
2022-11-29T22:47:13.610Z,6.36
2022-11-29T22:52:17.850Z,6.34
2022-11-29T22:57:20.614Z,6.33
2022-11-29T23:02:23.854Z,6.33
2022-11-29T23:07:28.023Z,6.33
2022-11-29T23:12:30.808Z,6.33
2022-11-29T23:17:33.520Z,6.34
2022-11-29T23:22:39.196Z,6.33
2022-11-29T23:27:41.985Z,6.30
2022-11-29T23:32:44.735Z,6.30
2022-11-29T23:37:48.905Z,6.29
2022-11-29T23:42:52.114Z,6.26
2022-11-29T23:47:54.913Z,6.27
2022-11-29T23:52:59.057Z,6.27
2022-11-29T23:58:02.188Z,6.27
